sensor_id;sensor_type;location;lat;lon;timestamp;temperature;humidity
3067;DHT22;1544;48.834;9.194;2024-02-21T00:01:27;9.00;37.80
3067;DHT22;1544;48.834;9.194;2024-02-21T00:04:04;9.00;37.80
3067;DHT22;1544;48.834;9.194;2024-02-21T00:06:40;9.00;37.80
3067;DHT22;1544;48.834;9.194;2024-02-21T00:09:16;9.00;37.80
3067;DHT22;1544;48.834;9.194;2024-02-21T00:11:52;9.00;37.70
3067;DHT22;1544;48.834;9.194;2024-02-21T00:14:28;9.00;37.70
3067;DHT22;1544;48.834;9.194;2024-02-21T00:17:04;9.10;37.60
3067;DHT22;1544;48.834;9.194;2024-02-21T00:19:40;9.10;37.60
3067;DHT22;1544;48.834;9.194;2024-02-21T00:22:16;9.10;37.60
3067;DHT22;1544;48.834;9.194;2024-02-21T00:24:52;9.10;37.80
3067;DHT22;1544;48.834;9.194;2024-02-21T00:27:28;9.10;37.50
3067;DHT22;1544;48.834;9.194;2024-02-21T00:30:04;9.20;37.50
3067;DHT22;1544;48.834;9.194;2024-02-21T00:32:41;9.20;37.40
3067;DHT22;1544;48.834;9.194;2024-02-21T00:35:17;9.20;37.40
3067;DHT22;1544;48.834;9.194;2024-02-21T00:37:53;9.30;37.40
3067;DHT22;1544;48.834;9.194;2024-02-21T00:40:29;9.30;37.30
3067;DHT22;1544;48.834;9.194;2024-02-21T00:43:05;9.30;37.30
3067;DHT22;1544;48.834;9.194;2024-02-21T00:45:41;9.30;37.20
3067;DHT22;1544;48.834;9.194;2024-02-21T00:48:17;9.40;37.10
3067;DHT22;1544;48.834;9.194;2024-02-21T00:50:53;9.30;37.00
3067;DHT22;1544;48.834;9.194;2024-02-21T00:53:29;9.30;37.00
3067;DHT22;1544;48.834;9.194;2024-02-21T00:56:06;9.30;37.10
3067;DHT22;1544;48.834;9.194;2024-02-21T00:58:42;9.30;37.10
3067;DHT22;1544;48.834;9.194;2024-02-21T01:01:22;9.80;37.50
3067;DHT22;1544;48.834;9.194;2024-02-21T01:03:59;9.30;37.10
3067;DHT22;1544;48.834;9.194;2024-02-21T01:06:36;9.30;37.10
3067;DHT22;1544;48.834;9.194;2024-02-21T01:09:13;9.30;37.20
3067;DHT22;1544;48.834;9.194;2024-02-21T01:11:48;9.30;37.20
3067;DHT22;1544;48.834;9.194;2024-02-21T01:14:25;9.30;37.20
3067;DHT22;1544;48.834;9.194;2024-02-21T01:17:01;9.30;37.30
3067;DHT22;1544;48.834;9.194;2024-02-21T01:19:37;9.30;37.30
3067;DHT22;1544;48.834;9.194;2024-02-21T01:22:14;9.30;37.30
3067;DHT22;1544;48.834;9.194;2024-02-21T01:24:51;9.20;37.30
3067;DHT22;1544;48.834;9.194;2024-02-21T01:27:27;9.20;37.30
3067;DHT22;1544;48.834;9.194;2024-02-21T01:30:04;9.20;37.20
3067;DHT22;1544;48.834;9.194;2024-02-21T01:32:41;9.20;37.20
3067;DHT22;1544;48.834;9.194;2024-02-21T01:35:17;9.20;37.20
3067;DHT22;1544;48.834;9.194;2024-02-21T01:37:54;9.20;37.20
3067;DHT22;1544;48.834;9.194;2024-02-21T01:40:30;9.20;37.20
3067;DHT22;1544;48.834;9.194;2024-02-21T01:43:19;9.50;37.50
3067;DHT22;1544;48.834;9.194;2024-02-21T01:45:56;9.10;37.20
3067;DHT22;1544;48.834;9.194;2024-02-21T01:48:32;9.10;37.10
3067;DHT22;1544;48.834;9.194;2024-02-21T01:51:09;9.10;37.20
3067;DHT22;1544;48.834;9.194;2024-02-21T01:53:45;9.10;37.20
3067;DHT22;1544;48.834;9.194;2024-02-21T01:56:22;9.10;37.10
3067;DHT22;1544;48.834;9.194;2024-02-21T01:58:58;9.10;37.10
3067;DHT22;1544;48.834;9.194;2024-02-21T02:01:35;9.10;37.20
3067;DHT22;1544;48.834;9.194;2024-02-21T02:04:11;9.10;37.20
3067;DHT22;1544;48.834;9.194;2024-02-21T02:06:48;9.10;37.20
3067;DHT22;1544;48.834;9.194;2024-02-21T02:09:24;9.20;37.20
3067;DHT22;1544;48.834;9.194;2024-02-21T02:12:01;9.20;37.20
3067;DHT22;1544;48.834;9.194;2024-02-21T02:14:37;9.20;37.20
3067;DHT22;1544;48.834;9.194;2024-02-21T02:17:13;9.20;37.20
3067;DHT22;1544;48.834;9.194;2024-02-21T02:19:50;9.10;37.60
3067;DHT22;1544;48.834;9.194;2024-02-21T02:22:29;9.10;37.10
3067;DHT22;1544;48.834;9.194;2024-02-21T02:25:05;9.10;37.10
3067;DHT22;1544;48.834;9.194;2024-02-21T02:27:42;9.20;37.10
3067;DHT22;1544;48.834;9.194;2024-02-21T02:30:19;9.20;37.10
3067;DHT22;1544;48.834;9.194;2024-02-21T02:32:55;9.20;37.20
3067;DHT22;1544;48.834;9.194;2024-02-21T02:35:32;9.20;37.10
3067;DHT22;1544;48.834;9.194;2024-02-21T02:38:11;9.20;37.20
3067;DHT22;1544;48.834;9.194;2024-02-21T02:40:48;9.20;37.10
3067;DHT22;1544;48.834;9.194;2024-02-21T02:43:24;9.20;37.10
3067;DHT22;1544;48.834;9.194;2024-02-21T02:46:00;9.20;37.10
3067;DHT22;1544;48.834;9.194;2024-02-21T02:48:36;9.20;37.10
3067;DHT22;1544;48.834;9.194;2024-02-21T02:51:14;9.30;37.20
3067;DHT22;1544;48.834;9.194;2024-02-21T02:53:50;9.30;37.50
3067;DHT22;1544;48.834;9.194;2024-02-21T02:56:27;9.30;37.20
3067;DHT22;1544;48.834;9.194;2024-02-21T02:59:03;9.30;37.30
3067;DHT22;1544;48.834;9.194;2024-02-21T03:01:39;9.30;37.40
3067;DHT22;1544;48.834;9.194;2024-02-21T03:04:15;9.30;37.60
3067;DHT22;1544;48.834;9.194;2024-02-21T03:06:51;9.30;37.60
3067;DHT22;1544;48.834;9.194;2024-02-21T03:09:27;9.20;37.70
3067;DHT22;1544;48.834;9.194;2024-02-21T03:12:05;9.20;37.80
3067;DHT22;1544;48.834;9.194;2024-02-21T03:14:41;9.20;37.80
3067;DHT22;1544;48.834;9.194;2024-02-21T03:17:17;9.20;37.70
3067;DHT22;1544;48.834;9.194;2024-02-21T03:19:53;9.20;37.70
3067;DHT22;1544;48.834;9.194;2024-02-21T03:22:31;9.20;37.70
3067;DHT22;1544;48.834;9.194;2024-02-21T03:25:09;9.10;37.80
3067;DHT22;1544;48.834;9.194;2024-02-21T03:27:46;9.10;38.10
3067;DHT22;1544;48.834;9.194;2024-02-21T03:30:22;9.10;38.30
3067;DHT22;1544;48.834;9.194;2024-02-21T03:32:59;9.10;38.50
3067;DHT22;1544;48.834;9.194;2024-02-21T03:35:35;9.10;38.60
3067;DHT22;1544;48.834;9.194;2024-02-21T03:38:11;9.10;38.70
3067;DHT22;1544;48.834;9.194;2024-02-21T03:40:46;9.00;38.60
3067;DHT22;1544;48.834;9.194;2024-02-21T03:43:22;9.00;38.70
3067;DHT22;1544;48.834;9.194;2024-02-21T03:45:59;9.00;38.80
3067;DHT22;1544;48.834;9.194;2024-02-21T03:48:35;9.00;38.80
3067;DHT22;1544;48.834;9.194;2024-02-21T03:51:12;9.00;38.80
3067;DHT22;1544;48.834;9.194;2024-02-21T03:53:48;9.00;38.70
3067;DHT22;1544;48.834;9.194;2024-02-21T03:56:24;9.00;38.60
3067;DHT22;1544;48.834;9.194;2024-02-21T03:59:00;9.00;38.60
3067;DHT22;1544;48.834;9.194;2024-02-21T04:01:36;9.00;38.50
3067;DHT22;1544;48.834;9.194;2024-02-21T04:04:12;9.00;38.60
3067;DHT22;1544;48.834;9.194;2024-02-21T04:06:48;9.00;38.60
3067;DHT22;1544;48.834;9.194;2024-02-21T04:09:25;9.00;38.60
3067;DHT22;1544;48.834;9.194;2024-02-21T04:12:01;9.10;38.70
3067;DHT22;1544;48.834;9.194;2024-02-21T04:14:49;9.10;38.80
3067;DHT22;1544;48.834;9.194;2024-02-21T04:17:25;9.00;38.80
3067;DHT22;1544;48.834;9.194;2024-02-21T04:20:04;9.00;38.80
3067;DHT22;1544;48.834;9.194;2024-02-21T04:22:45;9.00;38.90
3067;DHT22;1544;48.834;9.194;2024-02-21T04:25:22;8.90;38.90
3067;DHT22;1544;48.834;9.194;2024-02-21T04:27:58;8.90;39.00
3067;DHT22;1544;48.834;9.194;2024-02-21T04:30:34;8.80;39.00
3067;DHT22;1544;48.834;9.194;2024-02-21T04:33:10;8.70;39.00
3067;DHT22;1544;48.834;9.194;2024-02-21T04:35:46;8.70;39.10
3067;DHT22;1544;48.834;9.194;2024-02-21T04:38:23;8.70;39.00
3067;DHT22;1544;48.834;9.194;2024-02-21T04:40:59;8.70;39.00
3067;DHT22;1544;48.834;9.194;2024-02-21T04:43:35;8.60;38.90
3067;DHT22;1544;48.834;9.194;2024-02-21T04:46:12;8.60;39.00
3067;DHT22;1544;48.834;9.194;2024-02-21T04:48:49;8.60;39.10
3067;DHT22;1544;48.834;9.194;2024-02-21T04:51:25;8.60;39.20
3067;DHT22;1544;48.834;9.194;2024-02-21T04:54:01;8.60;39.20
3067;DHT22;1544;48.834;9.194;2024-02-21T04:56:37;8.50;39.20
3067;DHT22;1544;48.834;9.194;2024-02-21T04:59:13;8.50;39.00
3067;DHT22;1544;48.834;9.194;2024-02-21T05:01:49;8.50;39.00
3067;DHT22;1544;48.834;9.194;2024-02-21T05:04:25;8.50;39.10
3067;DHT22;1544;48.834;9.194;2024-02-21T05:07:01;8.40;39.20
3067;DHT22;1544;48.834;9.194;2024-02-21T05:09:39;8.40;39.20
3067;DHT22;1544;48.834;9.194;2024-02-21T05:12:15;8.40;39.30
3067;DHT22;1544;48.834;9.194;2024-02-21T05:14:51;8.40;39.40
3067;DHT22;1544;48.834;9.194;2024-02-21T05:17:28;8.30;39.40
3067;DHT22;1544;48.834;9.194;2024-02-21T05:20:06;8.30;39.40
3067;DHT22;1544;48.834;9.194;2024-02-21T05:22:43;8.30;39.50
3067;DHT22;1544;48.834;9.194;2024-02-21T05:25:19;8.30;39.50
3067;DHT22;1544;48.834;9.194;2024-02-21T05:27:55;8.30;39.50
3067;DHT22;1544;48.834;9.194;2024-02-21T05:30:31;8.30;39.50
3067;DHT22;1544;48.834;9.194;2024-02-21T05:33:08;8.30;39.50
3067;DHT22;1544;48.834;9.194;2024-02-21T05:35:44;8.20;39.40
3067;DHT22;1544;48.834;9.194;2024-02-21T05:38:20;8.20;39.40
3067;DHT22;1544;48.834;9.194;2024-02-21T05:40:56;8.20;39.30
3067;DHT22;1544;48.834;9.194;2024-02-21T05:43:32;8.20;39.10
3067;DHT22;1544;48.834;9.194;2024-02-21T05:46:09;8.20;39.00
3067;DHT22;1544;48.834;9.194;2024-02-21T05:48:44;8.20;38.90
3067;DHT22;1544;48.834;9.194;2024-02-21T05:51:21;8.20;39.10
3067;DHT22;1544;48.834;9.194;2024-02-21T05:53:57;8.10;38.80
3067;DHT22;1544;48.834;9.194;2024-02-21T05:56:33;8.10;38.90
3067;DHT22;1544;48.834;9.194;2024-02-21T05:59:09;8.10;38.80
3067;DHT22;1544;48.834;9.194;2024-02-21T06:01:45;8.10;38.80
3067;DHT22;1544;48.834;9.194;2024-02-21T06:04:21;8.10;38.70
3067;DHT22;1544;48.834;9.194;2024-02-21T06:06:57;8.10;38.60
3067;DHT22;1544;48.834;9.194;2024-02-21T06:09:34;8.10;38.60
3067;DHT22;1544;48.834;9.194;2024-02-21T06:12:10;8.00;38.40
3067;DHT22;1544;48.834;9.194;2024-02-21T06:14:46;8.00;38.70
3067;DHT22;1544;48.834;9.194;2024-02-21T06:17:22;7.90;38.60
3067;DHT22;1544;48.834;9.194;2024-02-21T06:19:58;7.90;38.60
3067;DHT22;1544;48.834;9.194;2024-02-21T06:22:34;7.90;38.70
3067;DHT22;1544;48.834;9.194;2024-02-21T06:25:10;7.80;38.60
3067;DHT22;1544;48.834;9.194;2024-02-21T06:27:46;7.80;38.70
3067;DHT22;1544;48.834;9.194;2024-02-21T06:30:21;7.70;38.80
3067;DHT22;1544;48.834;9.194;2024-02-21T06:32:57;7.70;38.90
3067;DHT22;1544;48.834;9.194;2024-02-21T06:35:35;7.70;39.00
3067;DHT22;1544;48.834;9.194;2024-02-21T06:38:11;7.60;39.00
3067;DHT22;1544;48.834;9.194;2024-02-21T06:40:47;7.60;39.10
3067;DHT22;1544;48.834;9.194;2024-02-21T06:43:25;7.60;39.20
3067;DHT22;1544;48.834;9.194;2024-02-21T06:46:02;7.50;39.20
3067;DHT22;1544;48.834;9.194;2024-02-21T06:48:38;7.60;39.20
3067;DHT22;1544;48.834;9.194;2024-02-21T06:51:14;7.60;39.10
3067;DHT22;1544;48.834;9.194;2024-02-21T06:53:50;7.60;38.90
3067;DHT22;1544;48.834;9.194;2024-02-21T06:56:26;7.60;38.90
3067;DHT22;1544;48.834;9.194;2024-02-21T06:59:04;7.60;38.90
3067;DHT22;1544;48.834;9.194;2024-02-21T07:01:40;7.60;38.90
3067;DHT22;1544;48.834;9.194;2024-02-21T07:04:20;7.70;39.00
3067;DHT22;1544;48.834;9.194;2024-02-21T07:06:56;7.70;38.90
3067;DHT22;1544;48.834;9.194;2024-02-21T07:09:32;7.70;38.90
3067;DHT22;1544;48.834;9.194;2024-02-21T07:12:08;7.70;38.80
3067;DHT22;1544;48.834;9.194;2024-02-21T07:14:45;7.80;38.70
3067;DHT22;1544;48.834;9.194;2024-02-21T07:17:21;7.80;38.60
3067;DHT22;1544;48.834;9.194;2024-02-21T07:19:57;7.80;38.60
3067;DHT22;1544;48.834;9.194;2024-02-21T07:22:34;7.90;38.60
3067;DHT22;1544;48.834;9.194;2024-02-21T07:25:10;7.90;38.50
3067;DHT22;1544;48.834;9.194;2024-02-21T07:27:46;8.00;38.50
3067;DHT22;1544;48.834;9.194;2024-02-21T07:30:22;8.10;38.50
3067;DHT22;1544;48.834;9.194;2024-02-21T07:32:58;8.10;38.40
3067;DHT22;1544;48.834;9.194;2024-02-21T07:35:34;8.20;38.20
3067;DHT22;1544;48.834;9.194;2024-02-21T07:38:10;8.30;38.10
3067;DHT22;1544;48.834;9.194;2024-02-21T07:40:48;8.40;38.00
3067;DHT22;1544;48.834;9.194;2024-02-21T07:43:24;8.50;38.00
3067;DHT22;1544;48.834;9.194;2024-02-21T07:46:02;8.50;37.80
3067;DHT22;1544;48.834;9.194;2024-02-21T07:48:39;8.70;37.60
3067;DHT22;1544;48.834;9.194;2024-02-21T07:51:15;8.80;37.40
3067;DHT22;1544;48.834;9.194;2024-02-21T07:53:53;8.80;37.30
3067;DHT22;1544;48.834;9.194;2024-02-21T07:56:29;8.90;37.20
3067;DHT22;1544;48.834;9.194;2024-02-21T07:59:07;9.00;37.20
3067;DHT22;1544;48.834;9.194;2024-02-21T08:01:43;9.10;37.20
3067;DHT22;1544;48.834;9.194;2024-02-21T08:04:20;9.20;37.00
3067;DHT22;1544;48.834;9.194;2024-02-21T08:06:57;9.30;36.80
3067;DHT22;1544;48.834;9.194;2024-02-21T08:09:39;9.30;36.70
3067;DHT22;1544;48.834;9.194;2024-02-21T08:12:15;9.40;36.40
3067;DHT22;1544;48.834;9.194;2024-02-21T08:14:51;9.50;36.30
3067;DHT22;1544;48.834;9.194;2024-02-21T08:17:27;9.60;36.10
3067;DHT22;1544;48.834;9.194;2024-02-21T08:20:04;9.70;35.90
3067;DHT22;1544;48.834;9.194;2024-02-21T08:22:41;9.80;35.90
3067;DHT22;1544;48.834;9.194;2024-02-21T08:25:17;9.90;35.70
3067;DHT22;1544;48.834;9.194;2024-02-21T08:27:58;10.00;34.70
3067;DHT22;1544;48.834;9.194;2024-02-21T08:30:34;10.00;34.40
3067;DHT22;1544;48.834;9.194;2024-02-21T08:33:10;10.10;34.50
3067;DHT22;1544;48.834;9.194;2024-02-21T08:35:46;10.20;34.40
3067;DHT22;1544;48.834;9.194;2024-02-21T08:38:22;10.30;34.20
3067;DHT22;1544;48.834;9.194;2024-02-21T08:40:58;10.30;33.90
3067;DHT22;1544;48.834;9.194;2024-02-21T08:43:35;10.40;34.00
3067;DHT22;1544;48.834;9.194;2024-02-21T08:46:12;10.50;33.40
3067;DHT22;1544;48.834;9.194;2024-02-21T08:48:48;10.60;33.50
3067;DHT22;1544;48.834;9.194;2024-02-21T08:51:24;10.60;33.20
3067;DHT22;1544;48.834;9.194;2024-02-21T08:54:00;10.70;33.40
3067;DHT22;1544;48.834;9.194;2024-02-21T08:56:36;10.80;33.20
3067;DHT22;1544;48.834;9.194;2024-02-21T08:59:12;10.80;32.90
3067;DHT22;1544;48.834;9.194;2024-02-21T09:01:51;10.90;33.10
3067;DHT22;1544;48.834;9.194;2024-02-21T09:04:29;11.00;33.10
3067;DHT22;1544;48.834;9.194;2024-02-21T09:07:05;11.10;33.00
3067;DHT22;1544;48.834;9.194;2024-02-21T09:09:41;11.20;32.90
3067;DHT22;1544;48.834;9.194;2024-02-21T09:12:17;11.20;33.00
3067;DHT22;1544;48.834;9.194;2024-02-21T09:14:53;11.30;32.80
3067;DHT22;1544;48.834;9.194;2024-02-21T09:17:30;11.40;32.90
3067;DHT22;1544;48.834;9.194;2024-02-21T09:20:06;11.40;33.00
3067;DHT22;1544;48.834;9.194;2024-02-21T09:22:43;11.50;32.90
3067;DHT22;1544;48.834;9.194;2024-02-21T09:25:19;11.50;32.90
3067;DHT22;1544;48.834;9.194;2024-02-21T09:27:55;11.60;32.70
3067;DHT22;1544;48.834;9.194;2024-02-21T09:30:31;11.70;32.70
3067;DHT22;1544;48.834;9.194;2024-02-21T09:33:07;11.70;32.70
3067;DHT22;1544;48.834;9.194;2024-02-21T09:35:43;11.80;32.50
3067;DHT22;1544;48.834;9.194;2024-02-21T09:38:19;11.90;32.50
3067;DHT22;1544;48.834;9.194;2024-02-21T09:41:04;12.00;32.60
3067;DHT22;1544;48.834;9.194;2024-02-21T09:43:43;12.00;32.30
3067;DHT22;1544;48.834;9.194;2024-02-21T09:47:02;12.00;31.70
3067;DHT22;1544;48.834;9.194;2024-02-21T09:49:42;12.10;32.00
3067;DHT22;1544;48.834;9.194;2024-02-21T09:52:20;12.20;32.00
3067;DHT22;1544;48.834;9.194;2024-02-21T09:54:58;12.20;31.40
3067;DHT22;1544;48.834;9.194;2024-02-21T09:57:34;12.20;30.90
3067;DHT22;1544;48.834;9.194;2024-02-21T10:00:11;12.10;31.10
3067;DHT22;1544;48.834;9.194;2024-02-21T10:02:48;12.20;31.10
3067;DHT22;1544;48.834;9.194;2024-02-21T10:05:27;12.30;31.20
3067;DHT22;1544;48.834;9.194;2024-02-21T10:08:04;12.50;30.90
3067;DHT22;1544;48.834;9.194;2024-02-21T10:10:44;12.50;30.90
3067;DHT22;1544;48.834;9.194;2024-02-21T10:13:25;12.60;30.90
3067;DHT22;1544;48.834;9.194;2024-02-21T10:16:07;12.70;31.00
3067;DHT22;1544;48.834;9.194;2024-02-21T10:18:43;12.80;30.90
3067;DHT22;1544;48.834;9.194;2024-02-21T10:21:19;12.90;31.00
3067;DHT22;1544;48.834;9.194;2024-02-21T10:23:56;13.10;31.10
3067;DHT22;1544;48.834;9.194;2024-02-21T10:26:32;13.20;30.10
3067;DHT22;1544;48.834;9.194;2024-02-21T10:29:09;13.20;30.10
3067;DHT22;1544;48.834;9.194;2024-02-21T10:31:45;13.30;30.30
3067;DHT22;1544;48.834;9.194;2024-02-21T10:34:21;13.40;30.30
3067;DHT22;1544;48.834;9.194;2024-02-21T10:37:02;13.50;30.00
3067;DHT22;1544;48.834;9.194;2024-02-21T10:39:40;13.60;30.10
3067;DHT22;1544;48.834;9.194;2024-02-21T10:42:21;13.80;30.20
3067;DHT22;1544;48.834;9.194;2024-02-21T10:45:01;13.90;30.20
3067;DHT22;1544;48.834;9.194;2024-02-21T10:47:43;14.10;30.10
3067;DHT22;1544;48.834;9.194;2024-02-21T10:50:25;14.20;30.00
3067;DHT22;1544;48.834;9.194;2024-02-21T10:53:29;14.30;30.00
3067;DHT22;1544;48.834;9.194;2024-02-21T10:59:12;14.50;29.50
3067;DHT22;1544;48.834;9.194;2024-02-21T11:01:48;14.60;29.40
3067;DHT22;1544;48.834;9.194;2024-02-21T11:04:25;14.70;29.70
3067;DHT22;1544;48.834;9.194;2024-02-21T11:07:06;14.80;29.80
3067;DHT22;1544;48.834;9.194;2024-02-21T11:09:53;14.90;29.60
3067;DHT22;1544;48.834;9.194;2024-02-21T11:12:32;15.00;29.40
3067;DHT22;1544;48.834;9.194;2024-02-21T11:15:11;15.10;29.40
3067;DHT22;1544;48.834;9.194;2024-02-21T11:20:37;15.20;29.10
3067;DHT22;1544;48.834;9.194;2024-02-21T11:23:25;15.30;29.20
3067;DHT22;1544;48.834;9.194;2024-02-21T11:26:10;15.40;29.40
3067;DHT22;1544;48.834;9.194;2024-02-21T11:28:58;15.50;29.20
3067;DHT22;1544;48.834;9.194;2024-02-21T11:31:40;15.60;29.20
3067;DHT22;1544;48.834;9.194;2024-02-21T11:34:18;15.60;29.00
3067;DHT22;1544;48.834;9.194;2024-02-21T11:36:55;15.70;28.50
3067;DHT22;1544;48.834;9.194;2024-02-21T11:39:31;15.80;28.70
3067;DHT22;1544;48.834;9.194;2024-02-21T11:42:09;15.80;28.70
3067;DHT22;1544;48.834;9.194;2024-02-21T11:44:45;15.90;28.80
3067;DHT22;1544;48.834;9.194;2024-02-21T11:47:22;16.00;27.50
3067;DHT22;1544;48.834;9.194;2024-02-21T11:49:58;15.90;26.40
3067;DHT22;1544;48.834;9.194;2024-02-21T11:52:34;15.90;27.00
3067;DHT22;1544;48.834;9.194;2024-02-21T11:55:10;15.90;27.20
3067;DHT22;1544;48.834;9.194;2024-02-21T11:57:47;15.80;27.50
3067;DHT22;1544;48.834;9.194;2024-02-21T12:00:25;15.90;27.40
3067;DHT22;1544;48.834;9.194;2024-02-21T12:03:01;16.00;27.80
3067;DHT22;1544;48.834;9.194;2024-02-21T12:05:38;16.10;27.40
3067;DHT22;1544;48.834;9.194;2024-02-21T12:08:15;16.10;26.50
3067;DHT22;1544;48.834;9.194;2024-02-21T12:10:51;16.00;26.10
3067;DHT22;1544;48.834;9.194;2024-02-21T12:13:27;16.00;26.20
3067;DHT22;1544;48.834;9.194;2024-02-21T12:16:03;16.50;26.60
3067;DHT22;1544;48.834;9.194;2024-02-21T12:18:40;16.00;26.20
3067;DHT22;1544;48.834;9.194;2024-02-21T12:21:16;16.00;25.80
3067;DHT22;1544;48.834;9.194;2024-02-21T12:23:52;16.00;25.80
3067;DHT22;1544;48.834;9.194;2024-02-21T12:26:28;16.00;25.80
3067;DHT22;1544;48.834;9.194;2024-02-21T12:29:04;15.90;25.90
3067;DHT22;1544;48.834;9.194;2024-02-21T12:31:40;15.90;26.50
3067;DHT22;1544;48.834;9.194;2024-02-21T12:34:18;15.90;26.10
3067;DHT22;1544;48.834;9.194;2024-02-21T12:37:10;16.00;26.20
3067;DHT22;1544;48.834;9.194;2024-02-21T12:39:48;16.10;26.60
3067;DHT22;1544;48.834;9.194;2024-02-21T12:42:25;16.20;26.80
3067;DHT22;1544;48.834;9.194;2024-02-21T12:45:02;16.40;26.90
3067;DHT22;1544;48.834;9.194;2024-02-21T12:47:39;16.50;26.60
3067;DHT22;1544;48.834;9.194;2024-02-21T12:50:15;16.60;26.60
3067;DHT22;1544;48.834;9.194;2024-02-21T12:52:52;16.80;27.00
3067;DHT22;1544;48.834;9.194;2024-02-21T12:55:28;16.90;27.10
3067;DHT22;1544;48.834;9.194;2024-02-21T12:58:04;17.00;25.90
3067;DHT22;1544;48.834;9.194;2024-02-21T13:00:42;17.10;25.90
3067;DHT22;1544;48.834;9.194;2024-02-21T13:03:19;17.10;25.50
3067;DHT22;1544;48.834;9.194;2024-02-21T13:05:55;17.10;25.60
3067;DHT22;1544;48.834;9.194;2024-02-21T13:08:31;17.20;25.70
3067;DHT22;1544;48.834;9.194;2024-02-21T13:11:07;17.20;25.10
3067;DHT22;1544;48.834;9.194;2024-02-21T13:13:43;17.20;25.30
3067;DHT22;1544;48.834;9.194;2024-02-21T13:16:19;17.30;25.40
3067;DHT22;1544;48.834;9.194;2024-02-21T13:18:55;17.30;25.10
3067;DHT22;1544;48.834;9.194;2024-02-21T13:21:32;17.30;25.60
3067;DHT22;1544;48.834;9.194;2024-02-21T13:24:08;17.30;25.20
3067;DHT22;1544;48.834;9.194;2024-02-21T13:26:43;17.40;25.50
3067;DHT22;1544;48.834;9.194;2024-02-21T13:29:19;17.40;24.90
3067;DHT22;1544;48.834;9.194;2024-02-21T13:31:56;17.30;24.60
3067;DHT22;1544;48.834;9.194;2024-02-21T13:34:32;17.20;25.40
3067;DHT22;1544;48.834;9.194;2024-02-21T13:37:08;17.30;25.20
3067;DHT22;1544;48.834;9.194;2024-02-21T13:39:45;17.30;25.40
3067;DHT22;1544;48.834;9.194;2024-02-21T13:42:22;17.30;25.50
3067;DHT22;1544;48.834;9.194;2024-02-21T13:44:59;17.30;25.60
3067;DHT22;1544;48.834;9.194;2024-02-21T13:47:36;17.30;25.00
3067;DHT22;1544;48.834;9.194;2024-02-21T13:50:14;17.20;25.20
3067;DHT22;1544;48.834;9.194;2024-02-21T13:52:50;17.30;25.50
3067;DHT22;1544;48.834;9.194;2024-02-21T13:55:26;17.30;25.40
3067;DHT22;1544;48.834;9.194;2024-02-21T13:58:02;17.20;25.10
3067;DHT22;1544;48.834;9.194;2024-02-21T14:00:39;17.20;25.00
3067;DHT22;1544;48.834;9.194;2024-02-21T14:03:15;17.10;25.00
3067;DHT22;1544;48.834;9.194;2024-02-21T14:05:52;17.10;25.20
3067;DHT22;1544;48.834;9.194;2024-02-21T14:08:28;17.10;25.20
3067;DHT22;1544;48.834;9.194;2024-02-21T14:11:04;17.10;25.20
3067;DHT22;1544;48.834;9.194;2024-02-21T14:13:40;17.00;25.40
3067;DHT22;1544;48.834;9.194;2024-02-21T14:16:16;17.00;25.70
3067;DHT22;1544;48.834;9.194;2024-02-21T14:18:52;17.00;25.50
3067;DHT22;1544;48.834;9.194;2024-02-21T14:21:29;17.00;25.30
3067;DHT22;1544;48.834;9.194;2024-02-21T14:24:06;17.00;25.20
3067;DHT22;1544;48.834;9.194;2024-02-21T14:26:42;17.00;25.20
3067;DHT22;1544;48.834;9.194;2024-02-21T14:29:18;16.90;25.40
3067;DHT22;1544;48.834;9.194;2024-02-21T14:31:54;16.90;25.60
3067;DHT22;1544;48.834;9.194;2024-02-21T14:34:30;16.90;25.00
3067;DHT22;1544;48.834;9.194;2024-02-21T14:37:06;16.80;25.00
3067;DHT22;1544;48.834;9.194;2024-02-21T14:39:42;16.90;25.30
3067;DHT22;1544;48.834;9.194;2024-02-21T14:42:18;16.90;25.20
3067;DHT22;1544;48.834;9.194;2024-02-21T14:44:54;17.00;25.20
3067;DHT22;1544;48.834;9.194;2024-02-21T14:47:39;17.00;25.10
3067;DHT22;1544;48.834;9.194;2024-02-21T14:50:15;17.00;25.00
3067;DHT22;1544;48.834;9.194;2024-02-21T14:52:51;17.00;24.80
3067;DHT22;1544;48.834;9.194;2024-02-21T14:55:28;17.00;25.00
3067;DHT22;1544;48.834;9.194;2024-02-21T14:58:06;17.00;24.50
3067;DHT22;1544;48.834;9.194;2024-02-21T15:00:45;17.00;24.60
3067;DHT22;1544;48.834;9.194;2024-02-21T15:03:22;16.90;24.70
3067;DHT22;1544;48.834;9.194;2024-02-21T15:05:59;16.80;24.30
3067;DHT22;1544;48.834;9.194;2024-02-21T15:08:35;16.70;24.00
3067;DHT22;1544;48.834;9.194;2024-02-21T15:11:11;16.60;23.90
3067;DHT22;1544;48.834;9.194;2024-02-21T15:13:47;16.50;24.00
3067;DHT22;1544;48.834;9.194;2024-02-21T15:16:24;16.50;24.20
3067;DHT22;1544;48.834;9.194;2024-02-21T15:19:00;16.40;23.80
3067;DHT22;1544;48.834;9.194;2024-02-21T15:21:36;16.30;23.30
3067;DHT22;1544;48.834;9.194;2024-02-21T15:24:12;16.30;23.30
3067;DHT22;1544;48.834;9.194;2024-02-21T15:26:48;16.20;23.20
3067;DHT22;1544;48.834;9.194;2024-02-21T15:29:24;16.10;23.30
3067;DHT22;1544;48.834;9.194;2024-02-21T15:31:59;16.10;23.30
3067;DHT22;1544;48.834;9.194;2024-02-21T15:34:36;16.00;23.40
3067;DHT22;1544;48.834;9.194;2024-02-21T15:37:12;16.00;23.60
3067;DHT22;1544;48.834;9.194;2024-02-21T15:39:51;16.00;23.00
3067;DHT22;1544;48.834;9.194;2024-02-21T15:42:29;16.00;23.10
3067;DHT22;1544;48.834;9.194;2024-02-21T15:45:05;16.00;23.50
3067;DHT22;1544;48.834;9.194;2024-02-21T15:47:42;15.90;22.80
3067;DHT22;1544;48.834;9.194;2024-02-21T15:50:19;15.90;23.00
3067;DHT22;1544;48.834;9.194;2024-02-21T15:52:55;15.80;23.10
3067;DHT22;1544;48.834;9.194;2024-02-21T15:55:31;15.80;23.30
3067;DHT22;1544;48.834;9.194;2024-02-21T15:58:07;15.70;23.50
3067;DHT22;1544;48.834;9.194;2024-02-21T16:00:43;15.80;23.70
3067;DHT22;1544;48.834;9.194;2024-02-21T16:03:19;15.70;23.80
3067;DHT22;1544;48.834;9.194;2024-02-21T16:05:55;15.70;24.00
3067;DHT22;1544;48.834;9.194;2024-02-21T16:08:31;15.70;24.00
3067;DHT22;1544;48.834;9.194;2024-02-21T16:11:15;15.60;24.40
3067;DHT22;1544;48.834;9.194;2024-02-21T16:13:53;15.50;24.40
3067;DHT22;1544;48.834;9.194;2024-02-21T16:16:30;15.50;24.80
3067;DHT22;1544;48.834;9.194;2024-02-21T16:19:07;15.40;24.80
3067;DHT22;1544;48.834;9.194;2024-02-21T16:21:43;15.40;24.90
3067;DHT22;1544;48.834;9.194;2024-02-21T16:24:19;15.40;25.00
3067;DHT22;1544;48.834;9.194;2024-02-21T16:26:56;15.40;25.20
3067;DHT22;1544;48.834;9.194;2024-02-21T16:29:32;15.30;25.40
3067;DHT22;1544;48.834;9.194;2024-02-21T16:32:08;15.30;25.70
3067;DHT22;1544;48.834;9.194;2024-02-21T16:34:44;15.20;25.80
3067;DHT22;1544;48.834;9.194;2024-02-21T16:37:20;15.20;25.80
3067;DHT22;1544;48.834;9.194;2024-02-21T16:39:57;15.10;26.00
3067;DHT22;1544;48.834;9.194;2024-02-21T16:42:33;15.00;26.10
3067;DHT22;1544;48.834;9.194;2024-02-21T16:45:09;15.00;26.30
3067;DHT22;1544;48.834;9.194;2024-02-21T16:47:45;15.00;26.50
3067;DHT22;1544;48.834;9.194;2024-02-21T16:50:21;14.90;26.80
3067;DHT22;1544;48.834;9.194;2024-02-21T16:52:58;14.80;27.20
3067;DHT22;1544;48.834;9.194;2024-02-21T16:55:34;14.70;27.20
3067;DHT22;1544;48.834;9.194;2024-02-21T16:58:10;14.60;27.30
3067;DHT22;1544;48.834;9.194;2024-02-21T17:00:46;14.60;27.60
3067;DHT22;1544;48.834;9.194;2024-02-21T17:03:22;14.50;27.70
3067;DHT22;1544;48.834;9.194;2024-02-21T17:05:59;14.50;27.80
3067;DHT22;1544;48.834;9.194;2024-02-21T17:08:49;14.50;28.10
3067;DHT22;1544;48.834;9.194;2024-02-21T17:11:25;14.40;28.20
3067;DHT22;1544;48.834;9.194;2024-02-21T17:14:01;14.30;28.30
3067;DHT22;1544;48.834;9.194;2024-02-21T17:16:38;14.30;28.40
3067;DHT22;1544;48.834;9.194;2024-02-21T17:19:15;14.30;28.50